createdAt,value
2018-03-04T00:01:58.486Z,99155.56
2018-03-04T00:04:25.911Z,99155.87
2018-03-04T00:06:53.381Z,99154.20
2018-03-04T00:09:20.840Z,99152.79
2018-03-04T00:11:48.613Z,99152.45
2018-03-04T00:14:16.065Z,99158.84
2018-03-04T00:16:43.522Z,99159.17
2018-03-04T00:19:10.980Z,99158.63
2018-03-04T00:21:38.444Z,99164.61
2018-03-04T00:24:05.891Z,99167.44
2018-03-04T00:26:33.338Z,99166.07
2018-03-04T00:29:00.772Z,99160.16
2018-03-04T00:31:28.222Z,99165.98
2018-03-04T00:33:55.700Z,99164.94
2018-03-04T00:36:23.204Z,99167.53
2018-03-04T00:38:50.641Z,99167.89
2018-03-04T00:41:18.144Z,99174.80
2018-03-04T00:43:45.570Z,99174.67
2018-03-04T00:46:13.058Z,99177.45
2018-03-04T00:48:40.496Z,99185.58
2018-03-04T00:51:07.986Z,99181.23
2018-03-04T00:53:35.439Z,99177.63
2018-03-04T00:56:02.891Z,99185.92
2018-03-04T00:58:30.347Z,99174.73
2018-03-04T01:00:57.838Z,99178.70
2018-03-04T01:03:25.304Z,99188.67
2018-03-04T01:05:52.766Z,99187.38
2018-03-04T01:08:20.215Z,99185.78
2018-03-04T01:10:47.676Z,99184.77
2018-03-04T01:13:15.103Z,99190.59
2018-03-04T01:15:43.299Z,99186.03
2018-03-04T01:18:10.766Z,99189.30
2018-03-04T01:20:38.826Z,99182.16
2018-03-04T01:23:06.284Z,99178.75
2018-03-04T01:25:35.140Z,99181.22
2018-03-04T01:28:02.779Z,99189.73
2018-03-04T01:30:30.245Z,99179.22
2018-03-04T01:32:57.763Z,99171.90
2018-03-04T01:35:25.319Z,99164.77
2018-03-04T01:37:52.841Z,99176.31
2018-03-04T01:40:20.427Z,99177.56
2018-03-04T01:42:47.944Z,99178.93
2018-03-04T01:45:15.470Z,99174.14
2018-03-04T01:47:42.986Z,99174.66
2018-03-04T01:50:10.615Z,99165.59
2018-03-04T01:52:38.100Z,99157.91
2018-03-04T01:55:05.607Z,99157.68
2018-03-04T01:57:33.131Z,99158.91
2018-03-04T02:00:00.649Z,99156.31
2018-03-04T02:02:28.161Z,99152.59
2018-03-04T02:04:55.646Z,99157.98
2018-03-04T02:07:23.241Z,99159.75
2018-03-04T02:09:50.781Z,99157.63
2018-03-04T02:12:18.429Z,99163.77
2018-03-04T02:14:45.979Z,99170.73
2018-03-04T02:17:13.551Z,99163.31
2018-03-04T02:19:41.043Z,99163.66
2018-03-04T02:22:08.635Z,99156.12
2018-03-04T02:24:37.725Z,99162.92
2018-03-04T02:27:05.253Z,99152.30
2018-03-04T02:29:33.969Z,99157.14
2018-03-04T02:32:02.718Z,99162.70
2018-03-04T02:34:30.225Z,99157.91
2018-03-04T02:36:58.639Z,99150.55
2018-03-04T02:39:26.266Z,99142.32
2018-03-04T02:41:53.741Z,99135.25
2018-03-04T02:44:21.346Z,99137.73
2018-03-04T02:46:48.829Z,99131.19
2018-03-04T02:51:58.191Z,99131.36
2018-03-04T02:54:25.687Z,99131.00
2018-03-04T02:56:58.092Z,99127.62
2018-03-04T02:59:25.572Z,99133.66
2018-03-04T03:01:52.988Z,99137.84
2018-03-04T03:04:20.424Z,99131.67
2018-03-04T03:06:47.908Z,99130.26
2018-03-04T03:09:15.397Z,99128.60
2018-03-04T03:11:42.894Z,99132.27
2018-03-04T03:14:10.351Z,99125.66
2018-03-04T03:16:37.807Z,99130.56
2018-03-04T03:19:05.235Z,99130.42
2018-03-04T03:21:32.702Z,99131.55
2018-03-04T03:24:00.156Z,99132.39
2018-03-04T03:26:27.585Z,99128.89
2018-03-04T03:28:55.039Z,99137.92
2018-03-04T03:31:22.471Z,99137.48
2018-03-04T03:33:49.954Z,99140.73
2018-03-04T03:36:17.445Z,99142.31
2018-03-04T03:38:44.903Z,99148.23
2018-03-04T03:41:12.631Z,99151.84
2018-03-04T03:43:40.080Z,99157.09
2018-03-04T03:46:07.516Z,99155.13
2018-03-04T03:48:34.947Z,99149.20
2018-03-04T03:51:02.392Z,99145.62
2018-03-04T03:53:29.835Z,99154.56
2018-03-04T03:55:57.280Z,99148.88
2018-03-04T03:58:24.741Z,99151.03
2018-03-04T04:00:52.175Z,99139.83
2018-03-04T04:03:19.625Z,99138.34
2018-03-04T04:05:52.005Z,99142.39
2018-03-04T04:08:19.456Z,99138.70
2018-03-04T04:10:46.888Z,99128.70
2018-03-04T04:13:14.321Z,99126.84
2018-03-04T04:15:41.768Z,99133.91
2018-03-04T04:18:09.218Z,99135.95
2018-03-04T04:20:36.669Z,99140.03
2018-03-04T04:23:04.127Z,99147.08
2018-03-04T04:25:31.576Z,99142.04
2018-03-04T04:27:59.139Z,99136.78
2018-03-04T04:30:26.609Z,99147.30
2018-03-04T04:32:54.079Z,99142.48
2018-03-04T04:35:21.520Z,99130.54
2018-03-04T04:37:48.994Z,99136.27
2018-03-04T04:40:16.451Z,99126.05
2018-03-04T04:42:43.902Z,99125.43
2018-03-04T04:45:11.363Z,99126.15
2018-03-04T04:47:38.820Z,99123.66
2018-03-04T04:50:06.262Z,99118.80
2018-03-04T04:52:33.716Z,99116.49
2018-03-04T04:55:01.178Z,99118.03
2018-03-04T04:57:28.637Z,99112.94
2018-03-04T04:59:56.109Z,99121.28
2018-03-04T05:02:23.570Z,99116.85
2018-03-04T05:04:51.010Z,99113.07
2018-03-04T05:07:18.488Z,99103.80
2018-03-04T05:09:45.930Z,99104.02
2018-03-04T05:12:13.392Z,99106.33
2018-03-04T05:14:40.832Z,99108.10
2018-03-04T05:17:08.271Z,99106.69
2018-03-04T05:19:35.728Z,99099.91
2018-03-04T05:22:04.585Z,99103.91
2018-03-04T05:24:32.073Z,99103.02
2018-03-04T05:27:00.437Z,99098.14
2018-03-04T05:29:27.933Z,99093.95
2018-03-04T05:31:55.418Z,99094.98
2018-03-04T05:37:04.806Z,99099.66
2018-03-04T05:39:32.278Z,99097.41
2018-03-04T05:41:59.707Z,99087.98
2018-03-04T05:44:27.146Z,99091.97
2018-03-04T05:46:54.613Z,99095.41
2018-03-04T05:49:22.067Z,99090.05
2018-03-04T05:51:49.498Z,99092.11
2018-03-04T05:54:16.950Z,99095.88
2018-03-04T05:56:44.390Z,99099.66
2018-03-04T05:59:12.696Z,99089.56
2018-03-04T06:01:41.068Z,99100.55
2018-03-04T06:04:08.529Z,99094.24
2018-03-04T06:06:35.984Z,99094.08
2018-03-04T06:09:03.436Z,99093.47
2018-03-04T06:11:30.902Z,99094.13
2018-03-04T06:13:58.378Z,99101.25
2018-03-04T06:16:25.832Z,99099.13
2018-03-04T06:18:53.346Z,99095.56
2018-03-04T06:21:20.790Z,99097.09
2018-03-04T06:23:48.255Z,99098.14
2018-03-04T06:26:15.719Z,99107.53
2018-03-04T06:28:43.159Z,99100.33
2018-03-04T06:31:10.611Z,99095.97
2018-03-04T06:33:38.051Z,99103.23
2018-03-04T06:36:05.505Z,99096.80
2018-03-04T06:38:32.949Z,99101.99
2018-03-04T06:41:00.400Z,99103.07
2018-03-04T06:43:27.832Z,99108.67
2018-03-04T06:45:55.265Z,99100.83
2018-03-04T06:48:22.708Z,99100.20
2018-03-04T06:50:50.190Z,99102.80
2018-03-04T06:53:17.646Z,99104.68
2018-03-04T06:55:45.110Z,99108.29
2018-03-04T06:58:12.552Z,99102.86
2018-03-04T07:00:39.976Z,99100.33
2018-03-04T07:03:07.424Z,99096.44
2018-03-04T07:05:34.874Z,99096.61
2018-03-04T07:08:02.327Z,99097.25
2018-03-04T07:10:29.808Z,99096.61
2018-03-04T07:12:57.208Z,99095.20
2018-03-04T07:15:24.659Z,99092.05
2018-03-04T07:17:52.088Z,99089.05
2018-03-04T07:20:19.564Z,99094.59
2018-03-04T07:22:47.020Z,99094.13
2018-03-04T07:25:14.520Z,99091.39
2018-03-04T07:27:41.958Z,99096.41
2018-03-04T07:30:09.442Z,99092.72
2018-03-04T07:32:36.887Z,99087.02
2018-03-04T07:35:04.417Z,99089.00
2018-03-04T07:37:31.830Z,99092.27
2018-03-04T07:39:59.286Z,99091.54
2018-03-04T07:42:27.004Z,99087.88
2018-03-04T07:44:54.459Z,99086.05
2018-03-04T07:47:31.503Z,99090.07
2018-03-04T07:49:58.987Z,99090.29
2018-03-04T07:52:26.453Z,99092.66
2018-03-04T07:54:53.964Z,99091.07
2018-03-04T07:57:21.396Z,99093.28
2018-03-04T07:59:48.879Z,99086.37
2018-03-04T08:02:16.338Z,99086.52
2018-03-04T08:04:43.775Z,99087.30
2018-03-04T08:07:11.284Z,99083.50
2018-03-04T08:09:38.739Z,99073.23
2018-03-04T08:12:06.191Z,99071.44
2018-03-04T08:14:33.661Z,99068.61
2018-03-04T08:17:01.152Z,99068.34
2018-03-04T08:19:28.612Z,99073.44
2018-03-04T08:21:56.133Z,99075.23
2018-03-04T08:24:35.419Z,99068.77
2018-03-04T08:27:14.640Z,99060.08
2018-03-04T08:29:42.108Z,99061.03
2018-03-04T08:32:09.615Z,99054.48
2018-03-04T08:34:37.109Z,99058.92
2018-03-04T08:37:04.565Z,99059.66
2018-03-04T08:39:32.074Z,99055.55
2018-03-04T08:41:59.477Z,99055.30
2018-03-04T08:44:26.952Z,99057.17
2018-03-04T08:46:54.453Z,99058.56
2018-03-04T08:49:21.945Z,99055.70
2018-03-04T08:51:49.414Z,99057.70
2018-03-04T08:54:16.872Z,99055.77
2018-03-04T08:56:44.425Z,99054.82
2018-03-04T08:59:11.868Z,99048.94
2018-03-04T09:01:39.343Z,99049.23
2018-03-04T09:04:06.805Z,99058.09
2018-03-04T09:06:34.279Z,99051.42
2018-03-04T09:09:01.826Z,99054.57
2018-03-04T09:11:29.280Z,99054.32
2018-03-04T09:13:56.746Z,99056.74
2018-03-04T09:16:24.221Z,99059.04
2018-03-04T09:18:51.685Z,99050.45
2018-03-04T09:21:19.152Z,99045.63
2018-03-04T09:23:46.620Z,99043.30
2018-03-04T09:26:14.105Z,99038.05
2018-03-04T09:28:41.700Z,99034.55
2018-03-04T09:31:09.129Z,99035.21
2018-03-04T09:33:36.605Z,99041.49
2018-03-04T09:36:04.118Z,99032.72
2018-03-04T09:38:31.622Z,99027.09
2018-03-04T09:40:59.075Z,99036.92
2018-03-04T09:43:26.553Z,99028.08
2018-03-04T09:45:59.241Z,99025.22
2018-03-04T09:48:26.721Z,99021.20
2018-03-04T09:50:54.225Z,99024.00
2018-03-04T09:53:21.680Z,99012.31
2018-03-04T09:55:49.177Z,99014.20
2018-03-04T09:58:16.659Z,99016.94
2018-03-04T10:00:44.231Z,99016.41
2018-03-04T10:03:11.804Z,99020.48
2018-03-04T10:05:39.263Z,99019.18
2018-03-04T10:08:06.731Z,99016.16
2018-03-04T10:10:34.196Z,99019.25
2018-03-04T10:13:01.645Z,99015.28
2018-03-04T10:15:29.105Z,99016.59
2018-03-04T10:17:56.745Z,99014.05
2018-03-04T10:20:24.216Z,99006.09
2018-03-04T10:22:51.696Z,99006.38
2018-03-04T10:25:19.167Z,98999.50
2018-03-04T10:27:46.661Z,98998.04
2018-03-04T10:30:15.351Z,98989.09
2018-03-04T10:32:42.873Z,98993.02
2018-03-04T10:35:10.667Z,98981.03
2018-03-04T10:37:38.226Z,98979.76
2018-03-04T10:40:05.751Z,98978.89
2018-03-04T10:42:33.235Z,98980.80
2018-03-04T10:45:00.720Z,98976.48
2018-03-04T10:47:28.219Z,98973.59
2018-03-04T10:49:55.697Z,98966.46
2018-03-04T10:52:23.236Z,98970.50
2018-03-04T10:54:50.746Z,98966.02
2018-03-04T10:57:18.215Z,98961.01
2018-03-04T10:59:45.693Z,98961.45
2018-03-04T11:02:18.800Z,98962.16
2018-03-04T11:04:46.251Z,98959.04
2018-03-04T11:07:13.771Z,98955.39
2018-03-04T11:09:41.266Z,98955.25
2018-03-04T11:12:08.706Z,98945.25
2018-03-04T11:14:36.179Z,98944.02
2018-03-04T11:17:03.755Z,98939.42
2018-03-04T11:19:31.225Z,98933.45
2018-03-04T11:21:58.722Z,98932.20
2018-03-04T11:24:26.205Z,98941.41
2018-03-04T11:26:53.665Z,98933.73
2018-03-04T11:29:21.126Z,98940.20
2018-03-04T11:31:48.587Z,98940.77
2018-03-04T11:34:16.120Z,98942.41
2018-03-04T11:36:43.565Z,98943.88
2018-03-04T11:39:11.016Z,98944.05
2018-03-04T11:41:38.492Z,98941.92
2018-03-04T11:44:06.019Z,98934.27
2018-03-04T11:46:33.485Z,98933.63
2018-03-04T11:49:00.935Z,98930.91
2018-03-04T11:51:28.411Z,98929.02
2018-03-04T11:53:55.879Z,98923.59
2018-03-04T11:56:23.377Z,98920.57
2018-03-04T11:58:50.853Z,98923.32
2018-03-04T12:01:18.319Z,98913.58
2018-03-04T12:03:45.802Z,98910.16
2018-03-04T12:06:13.289Z,98907.47
2018-03-04T12:08:40.757Z,98899.45
2018-03-04T12:11:08.230Z,98889.48
2018-03-04T12:13:35.730Z,98892.22
2018-03-04T12:16:03.182Z,98888.41
2018-03-04T12:18:30.695Z,98879.84
2018-03-04T12:20:58.160Z,98879.36
2018-03-04T12:23:25.608Z,98876.92
2018-03-04T12:25:53.162Z,98868.48
2018-03-04T12:28:20.672Z,98866.39
2018-03-04T12:30:48.126Z,98869.73
2018-03-04T12:33:15.660Z,98867.97
2018-03-04T12:35:43.111Z,98870.26
2018-03-04T12:38:10.635Z,98863.28
2018-03-04T12:40:38.135Z,98870.78
2018-03-04T12:43:05.617Z,98862.59
2018-03-04T12:45:33.183Z,98870.44
2018-03-04T12:48:00.751Z,98857.86
2018-03-04T12:50:28.226Z,98852.11
2018-03-04T12:52:55.791Z,98844.08
2018-03-04T12:55:23.269Z,98852.08
2018-03-04T12:57:50.735Z,98840.52
2018-03-04T13:00:18.179Z,98836.00
2018-03-04T13:02:45.732Z,98841.38
2018-03-04T13:05:13.148Z,98837.50
2018-03-04T13:07:40.711Z,98837.10
2018-03-04T13:10:08.252Z,98840.09
2018-03-04T13:12:35.800Z,98839.47
2018-03-04T13:15:03.284Z,98843.31
2018-03-04T13:17:30.789Z,98836.72
2018-03-04T13:19:58.292Z,98839.86
2018-03-04T13:22:25.754Z,98840.45
2018-03-04T13:24:53.254Z,98836.95
2018-03-04T13:27:20.756Z,98833.44
2018-03-04T13:29:48.202Z,98832.47
2018-03-04T13:32:15.726Z,98830.69
2018-03-04T13:34:43.186Z,98823.77
2018-03-04T13:37:10.688Z,98822.25
2018-03-04T13:39:38.143Z,98820.98
2018-03-04T13:42:05.652Z,98813.77
2018-03-04T13:44:33.115Z,98808.32
2018-03-04T13:47:00.636Z,98800.98
2018-03-04T13:49:28.110Z,98791.59
2018-03-04T13:51:55.614Z,98804.39
2018-03-04T13:54:23.074Z,98796.80
2018-03-04T13:56:50.522Z,98790.04
2018-03-04T13:59:17.998Z,98792.42
2018-03-04T14:01:45.479Z,98789.11
2018-03-04T14:04:12.950Z,98794.84
2018-03-04T14:06:40.436Z,98793.48
2018-03-04T14:09:07.929Z,98783.42
2018-03-04T14:11:35.383Z,98780.89
2018-03-04T14:14:02.838Z,98785.84
2018-03-04T14:16:30.318Z,98782.36
2018-03-04T14:18:57.768Z,98777.02
2018-03-04T14:21:25.234Z,98780.74
2018-03-04T14:23:52.806Z,98774.90
2018-03-04T14:26:20.289Z,98778.62
2018-03-04T14:28:47.824Z,98786.88
2018-03-04T14:31:15.320Z,98790.05
2018-03-04T14:33:42.798Z,98783.36
2018-03-04T14:36:10.282Z,98793.84
2018-03-04T14:38:37.751Z,98792.56
2018-03-04T14:41:05.305Z,98788.26
2018-03-04T14:43:32.761Z,98790.28
2018-03-04T14:46:00.236Z,98790.59
2018-03-04T14:48:27.690Z,98784.33
2018-03-04T14:50:55.324Z,98785.53
2018-03-04T14:53:22.766Z,98786.84
2018-03-04T14:55:50.242Z,98785.66
2018-03-04T14:58:17.716Z,98780.50
2018-03-04T15:00:45.193Z,98773.77
2018-03-04T15:03:12.662Z,98757.27
2018-03-04T15:05:40.142Z,98746.66
2018-03-04T15:08:07.604Z,98746.48
2018-03-04T15:10:35.049Z,98754.88
2018-03-04T15:13:02.584Z,98765.45
2018-03-04T15:15:30.047Z,98758.20
2018-03-04T15:17:57.590Z,98750.69
2018-03-04T15:20:25.051Z,98749.48
2018-03-04T15:22:52.587Z,98751.27
2018-03-04T15:25:20.016Z,98750.95
2018-03-04T15:27:47.578Z,98752.47
2018-03-04T15:30:15.101Z,98742.50
2018-03-04T15:32:42.563Z,98742.23
2018-03-04T15:35:10.105Z,98734.37
2018-03-04T15:37:37.610Z,98736.84
2018-03-04T15:40:05.053Z,98728.53
2018-03-04T15:42:32.514Z,98724.77
2018-03-04T15:45:00.011Z,98720.30
2018-03-04T15:47:27.472Z,98728.06
2018-03-04T15:49:54.965Z,98722.66
2018-03-04T15:52:22.431Z,98726.69
2018-03-04T15:54:49.880Z,98716.47
2018-03-04T15:57:17.356Z,98715.21
2018-03-04T15:59:44.867Z,98715.67
2018-03-04T16:02:12.447Z,98721.80
2018-03-04T16:04:39.855Z,98727.30
2018-03-04T16:07:07.353Z,98728.34
2018-03-04T16:09:34.854Z,98727.39
2018-03-04T16:12:02.366Z,98728.22
2018-03-04T16:14:30.491Z,98718.63
2018-03-04T16:16:58.537Z,98723.89
2018-03-04T16:19:26.638Z,98721.55
2018-03-04T16:21:54.123Z,98719.02
2018-03-04T16:24:22.468Z,98719.14
2018-03-04T16:26:50.007Z,98719.56
2018-03-04T16:29:18.339Z,98724.33
2018-03-04T16:31:45.814Z,98718.63
2018-03-04T16:34:14.645Z,98709.66
2018-03-04T16:36:42.152Z,98712.09
2018-03-04T16:39:09.653Z,98711.69
2018-03-04T16:41:37.156Z,98711.74
2018-03-04T16:44:04.644Z,98709.77
2018-03-04T16:46:32.172Z,98714.66
2018-03-04T16:49:00.404Z,98713.39
2018-03-04T16:51:27.957Z,98711.17
2018-03-04T16:53:56.658Z,98709.03
2018-03-04T16:56:24.114Z,98711.58
2018-03-04T16:58:52.115Z,98713.66
2018-03-04T17:01:19.681Z,98715.28
2018-03-04T17:03:47.149Z,98717.92
2018-03-04T17:06:15.008Z,98718.70
2018-03-04T17:08:42.452Z,98716.16
2018-03-04T17:11:09.888Z,98719.00
2018-03-04T17:13:37.400Z,98715.64
2018-03-04T17:16:04.832Z,98720.22
2018-03-04T17:18:32.369Z,98716.41
2018-03-04T17:20:59.860Z,98715.53
2018-03-04T17:23:27.366Z,98721.45
2018-03-04T17:25:54.856Z,98726.22
2018-03-04T17:28:23.280Z,98720.94
2018-03-04T17:30:50.815Z,98716.16
2018-03-04T17:33:18.333Z,98710.05
2018-03-04T17:35:45.872Z,98703.55
2018-03-04T17:38:13.357Z,98708.61
2018-03-04T17:40:40.794Z,98709.42
2018-03-04T17:43:08.271Z,98709.92
2018-03-04T17:48:17.494Z,98705.90
2018-03-04T17:50:44.989Z,98707.56
2018-03-04T17:53:12.627Z,98696.28
2018-03-04T17:55:40.125Z,98692.97
2018-03-04T17:58:07.581Z,98695.39
2018-03-04T18:00:35.094Z,98694.92
2018-03-04T18:03:02.616Z,98691.38
2018-03-04T18:05:30.123Z,98689.78
2018-03-04T18:07:57.615Z,98682.89
2018-03-04T18:10:25.100Z,98685.47
2018-03-04T18:12:52.677Z,98683.23
2018-03-04T18:15:20.151Z,98689.61
2018-03-04T18:17:47.621Z,98685.41
2018-03-04T18:20:15.086Z,98680.04
2018-03-04T18:22:42.539Z,98681.87
2018-03-04T18:25:09.998Z,98681.44
2018-03-04T18:27:37.481Z,98693.30
2018-03-04T18:30:05.015Z,98689.86
2018-03-04T18:32:32.578Z,98683.13
2018-03-04T18:35:00.070Z,98686.13
2018-03-04T18:37:28.040Z,98692.68
2018-03-04T18:39:55.928Z,98685.32
2018-03-04T18:42:23.407Z,98684.30
2018-03-04T18:44:50.875Z,98679.33
2018-03-04T18:47:18.397Z,98678.78
2018-03-04T18:49:45.918Z,98681.02
2018-03-04T18:52:13.463Z,98676.26
2018-03-04T18:57:22.909Z,98675.30
2018-03-04T18:59:50.393Z,98664.48
2018-03-04T19:02:18.559Z,98664.19
2018-03-04T19:04:46.098Z,98668.80
2018-03-04T19:07:13.842Z,98663.48
2018-03-04T19:09:41.471Z,98660.89
2018-03-04T19:12:09.058Z,98665.13
2018-03-04T19:14:36.552Z,98659.80
2018-03-04T19:17:04.709Z,98650.95
2018-03-04T19:19:32.181Z,98650.91
2018-03-04T19:21:59.659Z,98652.73
2018-03-04T19:24:27.191Z,98656.02
2018-03-04T19:26:59.722Z,98649.36
2018-03-04T19:29:27.202Z,98650.16
2018-03-04T19:31:54.675Z,98653.23
2018-03-04T19:34:22.149Z,98658.67
2018-03-04T19:36:49.669Z,98670.00
2018-03-04T19:39:17.226Z,98664.00
2018-03-04T19:41:44.669Z,98666.41
2018-03-04T19:44:12.207Z,98672.06
2018-03-04T19:46:39.704Z,98669.47
2018-03-04T19:49:07.184Z,98670.52
2018-03-04T19:51:34.663Z,98664.64
2018-03-04T19:54:02.157Z,98661.89
2018-03-04T19:56:29.718Z,98670.05
2018-03-04T19:58:57.251Z,98669.67
2018-03-04T20:01:24.679Z,98669.70
2018-03-04T20:03:52.171Z,98655.84
2018-03-04T20:06:19.640Z,98660.33
2018-03-04T20:08:47.193Z,98658.76
2018-03-04T20:11:14.730Z,98665.62
2018-03-04T20:13:42.225Z,98671.56
2018-03-04T20:16:09.835Z,98682.12
2018-03-04T20:18:37.409Z,98685.00
2018-03-04T20:21:04.895Z,98675.99
2018-03-04T20:23:32.382Z,98678.55
2018-03-04T20:25:59.939Z,98681.47
2018-03-04T20:28:27.471Z,98693.98
2018-03-04T20:30:54.951Z,98690.61
2018-03-04T20:33:22.455Z,98691.28
2018-03-04T20:35:50.049Z,98686.38
2018-03-04T20:38:17.562Z,98684.17
2018-03-04T20:40:45.074Z,98681.83
2018-03-04T20:43:12.550Z,98691.83
2018-03-04T20:45:40.075Z,98682.66
2018-03-04T20:48:07.633Z,98684.85
2018-03-04T20:50:35.163Z,98688.47
2018-03-04T20:53:02.634Z,98682.46
2018-03-04T20:55:30.141Z,98684.13
2018-03-04T20:57:57.665Z,98681.81
2018-03-04T21:00:25.131Z,98678.34
2018-03-04T21:02:52.614Z,98677.59
2018-03-04T21:05:20.905Z,98676.25
2018-03-04T21:07:48.411Z,98674.42
2018-03-04T21:10:15.891Z,98673.38
2018-03-04T21:12:43.455Z,98674.20
2018-03-04T21:15:10.883Z,98674.25
2018-03-04T21:17:38.417Z,98673.73
2018-03-04T21:20:05.929Z,98674.91
2018-03-04T21:22:33.439Z,98673.06
2018-03-04T21:25:01.169Z,98666.02
2018-03-04T21:27:28.624Z,98668.76
2018-03-04T21:29:56.129Z,98666.55
2018-03-04T21:32:23.636Z,98672.09
2018-03-04T21:34:51.085Z,98657.75
2018-03-04T21:37:18.575Z,98659.09
2018-03-04T21:39:46.075Z,98650.98
2018-03-04T21:42:13.611Z,98649.64
2018-03-04T21:44:41.041Z,98648.39
2018-03-04T21:47:09.396Z,98644.59
2018-03-04T21:49:36.876Z,98651.39
2018-03-04T21:52:04.311Z,98649.71
2018-03-04T21:54:31.815Z,98644.95
2018-03-04T21:56:59.318Z,98644.95
2018-03-04T21:59:26.808Z,98639.30
2018-03-04T22:01:54.277Z,98640.38
2018-03-04T22:04:21.788Z,98637.80
2018-03-04T22:06:49.299Z,98640.16
2018-03-04T22:09:16.811Z,98634.31
2018-03-04T22:11:44.260Z,98632.54
2018-03-04T22:14:11.699Z,98627.43
2018-03-04T22:16:39.195Z,98630.45
2018-03-04T22:19:06.727Z,98631.39
2018-03-04T22:21:34.212Z,98634.67
2018-03-04T22:24:01.755Z,98631.03
2018-03-04T22:26:29.303Z,98633.67
2018-03-04T22:28:56.758Z,98632.23
2018-03-04T22:31:24.230Z,98642.05
2018-03-04T22:33:51.715Z,98639.43
2018-03-04T22:36:19.211Z,98639.33
2018-03-04T22:38:46.700Z,98652.83
2018-03-04T22:41:14.229Z,98648.64
2018-03-04T22:43:41.718Z,98647.58
2018-03-04T22:46:09.267Z,98650.09
2018-03-04T22:48:36.902Z,98642.23
2018-03-04T22:51:04.367Z,98633.44
2018-03-04T22:53:31.863Z,98636.50
2018-03-04T22:55:59.339Z,98634.58
2018-03-04T22:58:26.778Z,98628.53
2018-03-04T23:00:54.318Z,98636.27
2018-03-04T23:03:21.766Z,98641.35
2018-03-04T23:05:49.208Z,98636.92
2018-03-04T23:08:16.655Z,98641.76
2018-03-04T23:10:44.093Z,98639.01
2018-03-04T23:13:11.566Z,98647.13
2018-03-04T23:15:39.013Z,98652.37
2018-03-04T23:18:06.498Z,98650.80
2018-03-04T23:20:34.072Z,98653.57
2018-03-04T23:23:01.523Z,98661.16
2018-03-04T23:25:28.988Z,98654.33
2018-03-04T23:27:56.442Z,98648.98
2018-03-04T23:30:23.879Z,98639.39
2018-03-04T23:32:51.324Z,98630.71
2018-03-04T23:35:18.762Z,98625.86
2018-03-04T23:37:46.229Z,98634.13
2018-03-04T23:40:13.692Z,98630.53
2018-03-04T23:42:41.146Z,98641.72
2018-03-04T23:45:08.581Z,98649.85
2018-03-04T23:47:36.028Z,98645.52
2018-03-04T23:50:03.537Z,98649.88
2018-03-04T23:52:30.977Z,98645.57
2018-03-04T23:54:58.438Z,98633.88
2018-03-04T23:57:25.914Z,98644.09
2018-03-04T23:59:53.380Z,98642.69
